sensor_id;sensor_type;location;lat;lon;timestamp;P1;durP1;ratioP1;P2;durP2;ratioP2
12912;SDS011;6524;51.368;11.984;2023-08-01T04:00:17;3.45;;;3.05;;
12912;SDS011;6524;51.368;11.984;2023-08-01T04:05:18;3.53;;;3.03;;
12912;SDS011;6524;51.368;11.984;2023-08-01T04:10:18;3.05;;;2.58;;
12912;SDS011;6524;51.368;11.984;2023-08-01T04:15:19;3.47;;;2.80;;
12912;SDS011;6524;51.368;11.984;2023-08-01T04:20:19;3.75;;;2.85;;
12912;SDS011;6524;51.368;11.984;2023-08-01T04:25:19;5.57;;;2.87;;
12912;SDS011;6524;51.368;11.984;2023-08-01T04:30:20;2.78;;;2.58;;
12912;SDS011;6524;51.368;11.984;2023-08-01T04:35:20;3.30;;;2.80;;
12912;SDS011;6524;51.368;11.984;2023-08-01T04:40:20;3.33;;;2.42;;
12912;SDS011;6524;51.368;11.984;2023-08-01T04:45:21;2.90;;;2.60;;
12912;SDS011;6524;51.368;11.984;2023-08-01T04:50:21;3.22;;;2.50;;
12912;SDS011;6524;51.368;11.984;2023-08-01T04:55:21;4.55;;;3.35;;
12912;SDS011;6524;51.368;11.984;2023-08-01T05:00:22;2.43;;;2.20;;
12912;SDS011;6524;51.368;11.984;2023-08-01T05:05:22;3.70;;;2.55;;
12912;SDS011;6524;51.368;11.984;2023-08-01T05:10:22;3.42;;;2.88;;
12912;SDS011;6524;51.368;11.984;2023-08-01T05:15:23;2.38;;;2.17;;
12912;SDS011;6524;51.368;11.984;2023-08-01T05:20:26;3.30;;;2.20;;
12912;SDS011;6524;51.368;11.984;2023-08-01T05:25:30;2.35;;;1.70;;
12912;SDS011;6524;51.368;11.984;2023-08-01T05:30:30;3.15;;;2.15;;
12912;SDS011;6524;51.368;11.984;2023-08-01T05:35:34;2.45;;;1.70;;
12912;SDS011;6524;51.368;11.984;2023-08-01T05:40:34;2.93;;;2.10;;
12912;SDS011;6524;51.368;11.984;2023-08-01T05:45:35;2.67;;;1.73;;
12912;SDS011;6524;51.368;11.984;2023-08-01T05:50:36;2.00;;;1.80;;
12912;SDS011;6524;51.368;11.984;2023-08-01T05:55:36;2.60;;;1.75;;
12912;SDS011;6524;51.368;11.984;2023-08-01T06:00:37;2.23;;;1.80;;
12912;SDS011;6524;51.368;11.984;2023-08-01T06:05:39;2.80;;;1.70;;
12912;SDS011;6524;51.368;11.984;2023-08-01T06:10:39;3.40;;;2.00;;
12912;SDS011;6524;51.368;11.984;2023-08-01T06:15:43;3.30;;;2.00;;
12912;SDS011;6524;51.368;11.984;2023-08-01T06:20:47;2.25;;;1.80;;
12912;SDS011;6524;51.368;11.984;2023-08-01T06:25:49;2.20;;;1.70;;
12912;SDS011;6524;51.368;11.984;2023-08-01T06:30:50;1.80;;;1.70;;
12912;SDS011;6524;51.368;11.984;2023-08-01T06:35:50;1.80;;;1.70;;
12912;SDS011;6524;51.368;11.984;2023-08-01T06:40:51;2.10;;;1.90;;
12912;SDS011;6524;51.368;11.984;2023-08-01T06:45:51;2.05;;;1.65;;
12912;SDS011;6524;51.368;11.984;2023-08-01T06:50:51;2.47;;;2.10;;
12912;SDS011;6524;51.368;11.984;2023-08-01T06:55:52;2.30;;;1.60;;
12912;SDS011;6524;51.368;11.984;2023-08-01T07:00:52;2.63;;;1.40;;
12912;SDS011;6524;51.368;11.984;2023-08-01T07:05:52;1.88;;;1.10;;
12912;SDS011;6524;51.368;11.984;2023-08-01T07:10:53;1.40;;;1.10;;
12912;SDS011;6524;51.368;11.984;2023-08-01T07:15:54;1.20;;;1.10;;
12912;SDS011;6524;51.368;11.984;2023-08-01T07:21:01;1.55;;;1.17;;
12912;SDS011;6524;51.368;11.984;2023-08-01T07:26:05;1.88;;;1.30;;
12912;SDS011;6524;51.368;11.984;2023-08-01T07:31:06;1.55;;;1.20;;
12912;SDS011;6524;51.368;11.984;2023-08-01T07:36:07;1.30;;;1.20;;
12912;SDS011;6524;51.368;11.984;2023-08-01T07:41:07;1.17;;;1.00;;
12912;SDS011;6524;51.368;11.984;2023-08-01T07:46:08;1.10;;;1.00;;
12912;SDS011;6524;51.368;11.984;2023-08-01T07:51:10;1.70;;;1.20;;
12912;SDS011;6524;51.368;11.984;2023-08-01T07:56:11;1.48;;;1.17;;
12912;SDS011;6524;51.368;11.984;2023-08-01T08:01:12;1.27;;;1.13;;
12912;SDS011;6524;51.368;11.984;2023-08-01T08:06:13;1.50;;;1.17;;
12912;SDS011;6524;51.368;11.984;2023-08-01T08:11:13;1.63;;;1.10;;
12912;SDS011;6524;51.368;11.984;2023-08-01T08:16:14;1.15;;;1.05;;
12912;SDS011;6524;51.368;11.984;2023-08-01T08:21:14;1.20;;;1.10;;
12912;SDS011;6524;51.368;11.984;2023-08-01T08:26:15;2.08;;;1.40;;
12912;SDS011;6524;51.368;11.984;2023-08-01T08:31:15;2.00;;;1.40;;
12912;SDS011;6524;51.368;11.984;2023-08-01T08:36:19;1.10;;;1.00;;
12912;SDS011;6524;51.368;11.984;2023-08-01T08:41:20;1.85;;;1.13;;
12912;SDS011;6524;51.368;11.984;2023-08-01T08:46:21;1.30;;;1.20;;
12912;SDS011;6524;51.368;11.984;2023-08-01T08:51:28;2.55;;;1.10;;
12912;SDS011;6524;51.368;11.984;2023-08-01T08:56:30;9.18;;;5.57;;
12912;SDS011;6524;51.368;11.984;2023-08-01T09:01:31;1.52;;;1.20;;
12912;SDS011;6524;51.368;11.984;2023-08-01T09:06:46;2.03;;;1.83;;
12912;SDS011;6524;51.368;11.984;2023-08-01T09:11:52;2.90;;;1.20;;
12912;SDS011;6524;51.368;11.984;2023-08-01T09:16:53;1.25;;;1.15;;
12912;SDS011;6524;51.368;11.984;2023-08-01T09:21:53;1.30;;;1.20;;
12912;SDS011;6524;51.368;11.984;2023-08-01T09:27:01;1.50;;;1.10;;
12912;SDS011;6524;51.368;11.984;2023-08-01T09:32:22;2.17;;;1.30;;
12912;SDS011;6524;51.368;11.984;2023-08-01T09:37:23;2.10;;;1.85;;
12912;SDS011;6524;51.368;11.984;2023-08-01T09:42:24;1.55;;;1.25;;
12912;SDS011;6524;51.368;11.984;2023-08-01T09:47:26;1.23;;;1.13;;
12912;SDS011;6524;51.368;11.984;2023-08-01T09:52:37;1.38;;;1.00;;
12912;SDS011;6524;51.368;11.984;2023-08-01T09:57:38;1.40;;;1.15;;
12912;SDS011;6524;51.368;11.984;2023-08-01T10:02:43;1.13;;;1.02;;
12912;SDS011;6524;51.368;11.984;2023-08-01T10:07:45;1.40;;;1.30;;
12912;SDS011;6524;51.368;11.984;2023-08-01T10:12:47;1.48;;;1.30;;
12912;SDS011;6524;51.368;11.984;2023-08-01T10:17:49;2.28;;;2.00;;
12912;SDS011;6524;51.368;11.984;2023-08-01T10:22:49;3.17;;;1.92;;
12912;SDS011;6524;51.368;11.984;2023-08-01T10:28:01;2.33;;;2.10;;
12912;SDS011;6524;51.368;11.984;2023-08-01T10:33:03;3.60;;;3.20;;
12912;SDS011;6524;51.368;11.984;2023-08-01T10:38:07;2.30;;;2.10;;
12912;SDS011;6524;51.368;11.984;2023-08-01T10:43:21;2.70;;;2.50;;
12912;SDS011;6524;51.368;11.984;2023-08-01T10:48:22;3.22;;;2.60;;
12912;SDS011;6524;51.368;11.984;2023-08-01T10:53:26;2.92;;;2.70;;
12912;SDS011;6524;51.368;11.984;2023-08-01T10:58:37;2.63;;;2.42;;
12912;SDS011;6524;51.368;11.984;2023-08-01T11:03:38;3.25;;;2.88;;
12912;SDS011;6524;51.368;11.984;2023-08-01T11:08:40;3.72;;;2.90;;
12912;SDS011;6524;51.368;11.984;2023-08-01T11:13:49;3.75;;;3.25;;
12912;SDS011;6524;51.368;11.984;2023-08-01T11:18:51;4.57;;;3.00;;
12912;SDS011;6524;51.368;11.984;2023-08-01T11:23:51;3.40;;;3.10;;
12912;SDS011;6524;51.368;11.984;2023-08-01T11:28:52;3.47;;;3.03;;
12912;SDS011;6524;51.368;11.984;2023-08-01T11:33:57;4.32;;;3.00;;
12912;SDS011;6524;51.368;11.984;2023-08-01T11:38:58;5.88;;;3.92;;
12912;SDS011;6524;51.368;11.984;2023-08-01T11:44:03;4.40;;;3.40;;
12912;SDS011;6524;51.368;11.984;2023-08-01T11:49:08;3.83;;;3.45;;
12912;SDS011;6524;51.368;11.984;2023-08-01T11:54:09;3.92;;;3.55;;
12912;SDS011;6524;51.368;11.984;2023-08-01T11:59:12;4.45;;;3.47;;
12912;SDS011;6524;51.368;11.984;2023-08-01T12:04:26;5.22;;;3.60;;
12912;SDS011;6524;51.368;11.984;2023-08-01T12:09:31;4.13;;;3.60;;
12912;SDS011;6524;51.368;11.984;2023-08-01T12:14:32;3.60;;;3.28;;
12912;SDS011;6524;51.368;11.984;2023-08-01T12:19:34;4.22;;;3.65;;
12912;SDS011;6524;51.368;11.984;2023-08-01T12:24:35;4.00;;;3.60;;
12912;SDS011;6524;51.368;11.984;2023-08-01T12:29:37;4.82;;;3.65;;
12912;SDS011;6524;51.368;11.984;2023-08-01T12:34:38;4.20;;;3.80;;
12912;SDS011;6524;51.368;11.984;2023-08-01T12:39:38;4.35;;;3.88;;
12912;SDS011;6524;51.368;11.984;2023-08-01T12:44:42;4.70;;;4.30;;
12912;SDS011;6524;51.368;11.984;2023-08-01T12:49:42;5.28;;;4.22;;
12912;SDS011;6524;51.368;11.984;2023-08-01T12:54:43;4.78;;;4.38;;
12912;SDS011;6524;51.368;11.984;2023-08-01T12:59:43;5.13;;;4.38;;
12912;SDS011;6524;51.368;11.984;2023-08-01T13:04:44;5.82;;;4.30;;
12912;SDS011;6524;51.368;11.984;2023-08-01T13:09:47;4.50;;;4.10;;
12912;SDS011;6524;51.368;11.984;2023-08-01T13:14:48;6.25;;;4.40;;
12912;SDS011;6524;51.368;11.984;2023-08-01T13:19:49;5.28;;;4.78;;
12912;SDS011;6524;51.368;11.984;2023-08-01T13:24:49;5.57;;;5.07;;
12912;SDS011;6524;51.368;11.984;2023-08-01T13:29:51;5.82;;;5.22;;
12912;SDS011;6524;51.368;11.984;2023-08-01T13:34:54;5.93;;;5.32;;
12912;SDS011;6524;51.368;11.984;2023-08-01T13:39:54;6.65;;;5.85;;
12912;SDS011;6524;51.368;11.984;2023-08-01T13:44:57;7.57;;;6.75;;
12912;SDS011;6524;51.368;11.984;2023-08-01T13:49:57;6.68;;;5.97;;
12912;SDS011;6524;51.368;11.984;2023-08-01T13:55:01;6.13;;;5.28;;
12912;SDS011;6524;51.368;11.984;2023-08-01T14:00:03;6.93;;;5.50;;
12912;SDS011;6524;51.368;11.984;2023-08-01T14:05:04;3.85;;;3.50;;
12912;SDS011;6524;51.368;11.984;2023-08-01T14:10:05;3.60;;;3.30;;
12912;SDS011;6524;51.368;11.984;2023-08-01T14:15:07;5.00;;;4.53;;
12912;SDS011;6524;51.368;11.984;2023-08-01T14:20:09;3.50;;;2.90;;
12912;SDS011;6524;51.368;11.984;2023-08-01T14:25:10;2.90;;;2.60;;
12912;SDS011;6524;51.368;11.984;2023-08-01T14:30:10;4.40;;;2.90;;
12912;SDS011;6524;51.368;11.984;2023-08-01T14:35:11;3.33;;;2.60;;
12912;SDS011;6524;51.368;11.984;2023-08-01T14:40:12;3.45;;;2.80;;
12912;SDS011;6524;51.368;11.984;2023-08-01T14:45:15;3.50;;;3.20;;
12912;SDS011;6524;51.368;11.984;2023-08-01T14:50:16;3.20;;;2.90;;
12912;SDS011;6524;51.368;11.984;2023-08-01T14:55:16;3.90;;;2.53;;
12912;SDS011;6524;51.368;11.984;2023-08-01T15:00:17;2.53;;;2.33;;
12912;SDS011;6524;51.368;11.984;2023-08-01T15:05:19;2.33;;;2.13;;
12912;SDS011;6524;51.368;11.984;2023-08-01T15:10:19;2.95;;;2.30;;
12912;SDS011;6524;51.368;11.984;2023-08-01T15:15:20;3.05;;;2.63;;
12912;SDS011;6524;51.368;11.984;2023-08-01T15:20:23;3.42;;;2.78;;
12912;SDS011;6524;51.368;11.984;2023-08-01T15:25:23;3.40;;;3.10;;
12912;SDS011;6524;51.368;11.984;2023-08-01T15:30:24;3.03;;;2.50;;
12912;SDS011;6524;51.368;11.984;2023-08-01T15:35:28;2.45;;;2.25;;
12912;SDS011;6524;51.368;11.984;2023-08-01T15:40:29;2.33;;;2.13;;
12912;SDS011;6524;51.368;11.984;2023-08-01T15:45:31;2.53;;;2.33;;
12912;SDS011;6524;51.368;11.984;2023-08-01T15:50:31;2.58;;;2.17;;
12912;SDS011;6524;51.368;11.984;2023-08-01T15:55:34;2.33;;;2.13;;
12912;SDS011;6524;51.368;11.984;2023-08-01T16:00:34;3.03;;;2.50;;
12912;SDS011;6524;51.368;11.984;2023-08-01T16:05:39;3.63;;;2.65;;
12912;SDS011;6524;51.368;11.984;2023-08-01T16:10:40;2.90;;;2.33;;
12912;SDS011;6524;51.368;11.984;2023-08-01T16:15:42;3.15;;;2.20;;
12912;SDS011;6524;51.368;11.984;2023-08-01T16:20:42;2.30;;;2.10;;
12912;SDS011;6524;51.368;11.984;2023-08-01T16:25:43;2.78;;;2.28;;
12912;SDS011;6524;51.368;11.984;2023-08-01T16:30:44;2.95;;;2.03;;
12912;SDS011;6524;51.368;11.984;2023-08-01T16:35:45;2.22;;;1.95;;
12912;SDS011;6524;51.368;11.984;2023-08-01T16:40:45;2.38;;;2.17;;
12912;SDS011;6524;51.368;11.984;2023-08-01T16:45:46;2.80;;;2.58;;
12912;SDS011;6524;51.368;11.984;2023-08-01T16:50:50;3.00;;;2.20;;
12912;SDS011;6524;51.368;11.984;2023-08-01T16:55:50;2.33;;;2.10;;
12912;SDS011;6524;51.368;11.984;2023-08-01T17:00:52;2.47;;;2.28;;
12912;SDS011;6524;51.368;11.984;2023-08-01T17:05:53;4.25;;;2.50;;
12912;SDS011;6524;51.368;11.984;2023-08-01T17:10:53;3.30;;;2.08;;
12912;SDS011;6524;51.368;11.984;2023-08-01T17:15:54;3.05;;;2.40;;
12912;SDS011;6524;51.368;11.984;2023-08-01T17:20:55;3.03;;;2.20;;
12912;SDS011;6524;51.368;11.984;2023-08-01T17:25:55;2.20;;;2.00;;
12912;SDS011;6524;51.368;11.984;2023-08-01T17:31:01;3.45;;;2.20;;
12912;SDS011;6524;51.368;11.984;2023-08-01T17:36:03;4.65;;;2.20;;
12912;SDS011;6524;51.368;11.984;2023-08-01T17:41:16;3.05;;;2.22;;
12912;SDS011;6524;51.368;11.984;2023-08-01T17:46:22;3.10;;;2.30;;
12912;SDS011;6524;51.368;11.984;2023-08-01T17:51:24;4.03;;;2.88;;
12912;SDS011;6524;51.368;11.984;2023-08-01T17:56:25;2.40;;;2.17;;
12912;SDS011;6524;51.368;11.984;2023-08-01T18:01:26;2.10;;;1.90;;
12912;SDS011;6524;51.368;11.984;2023-08-01T18:06:28;2.22;;;2.00;;
12912;SDS011;6524;51.368;11.984;2023-08-01T18:11:29;2.70;;;2.22;;
12912;SDS011;6524;51.368;11.984;2023-08-01T18:16:30;3.15;;;2.53;;
12912;SDS011;6524;51.368;11.984;2023-08-01T18:21:30;3.00;;;2.70;;
12912;SDS011;6524;51.368;11.984;2023-08-01T18:26:31;3.83;;;2.35;;
12912;SDS011;6524;51.368;11.984;2023-08-01T18:31:33;2.28;;;2.08;;
12912;SDS011;6524;51.368;11.984;2023-08-01T18:36:34;2.72;;;1.88;;
12912;SDS011;6524;51.368;11.984;2023-08-01T18:41:35;2.55;;;1.70;;
12912;SDS011;6524;51.368;11.984;2023-08-01T18:46:38;3.90;;;2.78;;
12912;SDS011;6524;51.368;11.984;2023-08-01T18:51:44;2.05;;;1.70;;
12912;SDS011;6524;51.368;11.984;2023-08-01T18:56:48;3.75;;;2.00;;
12912;SDS011;6524;51.368;11.984;2023-08-01T19:01:49;2.28;;;2.05;;
12912;SDS011;6524;51.368;11.984;2023-08-01T19:06:50;2.42;;;1.80;;
12912;SDS011;6524;51.368;11.984;2023-08-01T19:11:51;2.85;;;2.00;;
12912;SDS011;6524;51.368;11.984;2023-08-01T19:16:51;3.10;;;2.80;;
12912;SDS011;6524;51.368;11.984;2023-08-01T19:21:52;3.28;;;2.35;;
12912;SDS011;6524;51.368;11.984;2023-08-01T19:26:52;3.38;;;2.30;;
12912;SDS011;6524;51.368;11.984;2023-08-01T19:31:53;2.70;;;2.50;;
12912;SDS011;6524;51.368;11.984;2023-08-01T19:36:54;2.90;;;2.28;;
12912;SDS011;6524;51.368;11.984;2023-08-01T19:41:58;2.95;;;2.30;;
12912;SDS011;6524;51.368;11.984;2023-08-01T19:46:58;3.30;;;2.30;;
12912;SDS011;6524;51.368;11.984;2023-08-01T19:51:59;4.75;;;2.50;;
12912;SDS011;6524;51.368;11.984;2023-08-01T19:56:59;3.15;;;2.40;;
12912;SDS011;6524;51.368;11.984;2023-08-01T20:02:01;3.60;;;2.45;;
12912;SDS011;6524;51.368;11.984;2023-08-01T20:07:12;3.35;;;2.30;;
12912;SDS011;6524;51.368;11.984;2023-08-01T20:12:13;4.03;;;2.42;;
12912;SDS011;6524;51.368;11.984;2023-08-01T20:17:13;4.15;;;2.60;;
12912;SDS011;6524;51.368;11.984;2023-08-01T20:22:15;3.45;;;2.10;;
12912;SDS011;6524;51.368;11.984;2023-08-01T20:27:16;2.50;;;2.30;;
12912;SDS011;6524;51.368;11.984;2023-08-01T20:32:17;3.72;;;2.72;;
12912;SDS011;6524;51.368;11.984;2023-08-01T20:37:20;3.63;;;2.58;;
12912;SDS011;6524;51.368;11.984;2023-08-01T20:42:20;4.72;;;2.92;;
12912;SDS011;6524;51.368;11.984;2023-08-01T20:47:21;3.30;;;2.70;;
12912;SDS011;6524;51.368;11.984;2023-08-01T20:52:21;3.45;;;2.72;;
12912;SDS011;6524;51.368;11.984;2023-08-01T20:57:22;2.90;;;2.53;;
12912;SDS011;6524;51.368;11.984;2023-08-01T21:02:23;3.95;;;2.40;;
12912;SDS011;6524;51.368;11.984;2023-08-01T21:07:26;2.83;;;2.40;;
12912;SDS011;6524;51.368;11.984;2023-08-01T21:12:27;3.50;;;2.55;;
12912;SDS011;6524;51.368;11.984;2023-08-01T21:17:27;3.00;;;2.70;;
12912;SDS011;6524;51.368;11.984;2023-08-01T21:22:28;3.35;;;2.60;;
12912;SDS011;6524;51.368;11.984;2023-08-01T21:27:28;3.30;;;2.42;;
12912;SDS011;6524;51.368;11.984;2023-08-01T21:32:29;5.88;;;2.53;;
12912;SDS011;6524;51.368;11.984;2023-08-01T21:37:30;3.90;;;2.47;;
12912;SDS011;6524;51.368;11.984;2023-08-01T21:42:35;2.88;;;2.38;;
12912;SDS011;6524;51.368;11.984;2023-08-01T21:47:38;3.05;;;2.40;;
12912;SDS011;6524;51.368;11.984;2023-08-01T21:52:40;4.00;;;3.38;;
12912;SDS011;6524;51.368;11.984;2023-08-01T21:57:41;2.75;;;2.40;;
12912;SDS011;6524;51.368;11.984;2023-08-01T22:02:43;2.95;;;2.40;;
12912;SDS011;6524;51.368;11.984;2023-08-01T22:07:44;4.07;;;2.45;;
12912;SDS011;6524;51.368;11.984;2023-08-01T22:12:44;3.78;;;2.40;;
12912;SDS011;6524;51.368;11.984;2023-08-01T22:17:45;2.80;;;2.55;;
12912;SDS011;6524;51.368;11.984;2023-08-01T22:22:47;4.65;;;2.40;;
12912;SDS011;6524;51.368;11.984;2023-08-01T22:27:51;3.63;;;2.70;;
12912;SDS011;6524;51.368;11.984;2023-08-01T22:32:51;2.67;;;2.47;;
12912;SDS011;6524;51.368;11.984;2023-08-01T22:37:52;2.90;;;2.60;;
12912;SDS011;6524;51.368;11.984;2023-08-01T22:42:53;3.10;;;2.50;;
12912;SDS011;6524;51.368;11.984;2023-08-01T22:47:53;2.75;;;2.40;;
12912;SDS011;6524;51.368;11.984;2023-08-01T22:52:54;2.90;;;2.30;;
12912;SDS011;6524;51.368;11.984;2023-08-01T22:57:54;2.50;;;2.30;;
12912;SDS011;6524;51.368;11.984;2023-08-01T23:02:54;2.60;;;2.28;;
12912;SDS011;6524;51.368;11.984;2023-08-01T23:07:55;2.80;;;2.42;;
12912;SDS011;6524;51.368;11.984;2023-08-01T23:12:57;3.22;;;2.17;;
12912;SDS011;6524;51.368;11.984;2023-08-01T23:17:57;2.35;;;2.00;;
12912;SDS011;6524;51.368;11.984;2023-08-01T23:22:57;2.83;;;2.28;;
12912;SDS011;6524;51.368;11.984;2023-08-01T23:27:58;2.67;;;2.28;;
12912;SDS011;6524;51.368;11.984;2023-08-01T23:32:58;2.60;;;2.20;;
12912;SDS011;6524;51.368;11.984;2023-08-01T23:37:58;2.90;;;2.03;;
12912;SDS011;6524;51.368;11.984;2023-08-01T23:42:59;3.17;;;2.03;;
12912;SDS011;6524;51.368;11.984;2023-08-01T23:47:59;3.80;;;2.20;;
12912;SDS011;6524;51.368;11.984;2023-08-01T23:52:59;2.45;;;2.10;;
12912;SDS011;6524;51.368;11.984;2023-08-01T23:58:00;2.90;;;2.13;;
